createdAt,value
2024-02-12T00:01:37.542Z,13.13
2024-02-12T00:04:04.256Z,12.60
2024-02-12T00:06:31.123Z,12.93
2024-02-12T00:08:57.795Z,12.73
2024-02-12T00:11:25.602Z,12.13
2024-02-12T00:13:52.242Z,12.50
2024-02-12T00:16:18.730Z,12.43
2024-02-12T00:18:46.532Z,11.43
2024-02-12T00:21:13.486Z,12.05
2024-02-12T00:23:40.054Z,12.02
2024-02-12T00:26:07.175Z,12.40
2024-02-12T00:28:34.745Z,11.63
2024-02-12T00:31:01.203Z,12.15
2024-02-12T00:33:29.468Z,13.95
2024-02-12T00:35:56.738Z,14.50
2024-02-12T00:38:23.297Z,14.70
2024-02-12T00:40:49.926Z,13.50
2024-02-12T00:43:17.043Z,14.25
2024-02-12T00:45:43.674Z,14.50
2024-02-12T00:48:10.440Z,14.32
2024-02-12T00:50:38.189Z,12.73
2024-02-12T00:53:05.166Z,13.40
2024-02-12T00:55:31.680Z,12.13
2024-02-12T00:57:59.397Z,11.75
2024-02-12T01:00:26.288Z,12.65
2024-02-12T01:02:52.768Z,13.18
2024-02-12T01:05:19.814Z,12.02
2024-02-12T01:07:47.019Z,13.35
2024-02-12T01:10:14.600Z,14.50
2024-02-12T01:12:43.652Z,13.50
2024-02-12T01:15:12.222Z,13.32
2024-02-12T01:17:42.763Z,13.95
2024-02-12T01:20:13.494Z,13.25
2024-02-12T01:22:40.050Z,13.48
2024-02-12T01:25:06.964Z,13.40
2024-02-12T01:27:33.765Z,12.93
2024-02-12T01:30:00.219Z,13.30
2024-02-12T01:32:27.064Z,12.80
2024-02-12T01:34:53.945Z,13.52
2024-02-12T01:37:22.839Z,13.48
2024-02-12T01:39:50.428Z,13.07
2024-02-12T01:42:16.970Z,14.15
2024-02-12T01:45:01.974Z,13.02
2024-02-12T01:47:28.788Z,14.43
2024-02-12T01:49:58.999Z,13.77
2024-02-12T01:52:29.591Z,14.30
2024-02-12T01:54:58.782Z,15.07
2024-02-12T01:57:25.327Z,13.95
2024-02-12T01:59:52.481Z,14.55
2024-02-12T02:02:19.060Z,14.40
2024-02-12T02:04:45.637Z,13.82
2024-02-12T02:07:21.817Z,12.85
2024-02-12T02:09:49.373Z,13.77
2024-02-12T02:12:16.437Z,13.93
2024-02-12T02:14:44.496Z,14.43
2024-02-12T02:17:11.586Z,14.23
2024-02-12T02:19:39.398Z,13.30
2024-02-12T02:22:06.503Z,13.80
2024-02-12T02:24:33.522Z,14.13
2024-02-12T02:27:00.087Z,14.48
2024-02-12T02:29:26.734Z,14.02
2024-02-12T02:31:53.301Z,15.02
2024-02-12T02:34:19.943Z,14.43
2024-02-12T02:36:48.092Z,13.57
2024-02-12T02:39:15.033Z,14.60
2024-02-12T02:41:45.045Z,13.80
2024-02-12T02:44:11.697Z,13.85
2024-02-12T02:46:38.239Z,13.43
2024-02-12T02:49:04.971Z,13.57
2024-02-12T02:51:31.909Z,14.88
2024-02-12T02:53:58.498Z,14.65
2024-02-12T02:56:26.125Z,14.07
2024-02-12T02:58:53.301Z,15.18
2024-02-12T03:01:23.726Z,14.40
2024-02-12T03:03:51.822Z,14.13
2024-02-12T03:06:20.361Z,14.50
2024-02-12T03:08:50.376Z,14.48
2024-02-12T03:11:21.123Z,14.48
2024-02-12T03:13:47.681Z,15.27
2024-02-12T03:16:18.068Z,14.52
2024-02-12T03:18:47.605Z,14.77
2024-02-12T03:21:23.009Z,15.52
2024-02-12T03:23:49.910Z,15.77
2024-02-12T03:26:17.380Z,15.30
2024-02-12T03:28:44.642Z,15.02
2024-02-12T03:31:14.613Z,14.57
2024-02-12T03:33:43.365Z,15.63
2024-02-12T03:36:10.342Z,15.75
2024-02-12T03:38:38.588Z,15.25
2024-02-12T03:41:08.498Z,15.73
2024-02-12T03:43:39.083Z,15.13
2024-02-12T03:46:06.770Z,15.77
2024-02-12T03:48:52.338Z,14.68
2024-02-12T03:51:37.500Z,14.95
2024-02-12T03:54:22.755Z,15.60
2024-02-12T03:57:07.816Z,15.60
2024-02-12T03:59:54.466Z,15.82
2024-02-12T04:02:21.444Z,14.85
2024-02-12T04:04:48.007Z,16.15
2024-02-12T04:07:16.350Z,14.90
2024-02-12T04:09:44.008Z,15.82
2024-02-12T04:12:14.367Z,15.85
2024-02-12T04:14:43.753Z,16.23
2024-02-12T04:17:11.489Z,15.82
2024-02-12T04:19:38.255Z,15.25
2024-02-12T04:22:11.395Z,16.73
2024-02-12T04:24:40.136Z,16.00
2024-02-12T04:27:08.946Z,15.05
2024-02-12T04:29:36.782Z,16.05
2024-02-12T04:32:04.447Z,15.60
2024-02-12T04:34:30.982Z,15.63
2024-02-12T04:36:58.538Z,14.75
2024-02-12T04:39:25.028Z,15.70
2024-02-12T04:41:52.584Z,15.10
2024-02-12T04:44:19.507Z,14.68
2024-02-12T04:46:46.565Z,14.65
2024-02-12T04:49:14.173Z,14.95
2024-02-12T04:51:41.662Z,14.32
2024-02-12T04:54:08.816Z,14.80
2024-02-12T04:56:35.891Z,14.00
2024-02-12T04:59:03.106Z,15.15
2024-02-12T05:01:29.870Z,13.52
2024-02-12T05:03:56.724Z,14.13
2024-02-12T05:06:23.968Z,15.07
2024-02-12T05:08:53.395Z,14.40
2024-02-12T05:11:21.251Z,14.48
2024-02-12T05:13:48.541Z,15.75
2024-02-12T05:16:15.715Z,14.48
2024-02-12T05:19:01.920Z,13.95
2024-02-12T05:21:46.956Z,13.88
2024-02-12T05:24:13.650Z,14.98
2024-02-12T05:26:40.842Z,14.13
2024-02-12T05:29:10.372Z,15.05
2024-02-12T05:31:37.119Z,15.27
2024-02-12T05:34:04.503Z,14.88
2024-02-12T05:36:31.959Z,15.55
2024-02-12T05:38:58.609Z,15.25
2024-02-12T05:41:25.264Z,16.40
2024-02-12T05:43:54.504Z,16.05
2024-02-12T05:46:21.373Z,14.52
2024-02-12T05:48:48.719Z,17.23
2024-02-12T05:51:15.707Z,14.48
2024-02-12T05:53:44.033Z,14.73
2024-02-12T05:56:10.758Z,14.95
2024-02-12T05:58:37.264Z,14.90
2024-02-12T06:01:04.327Z,15.32
2024-02-12T06:03:31.836Z,15.25
2024-02-12T06:06:00.363Z,15.82
2024-02-12T06:08:27.937Z,15.75
2024-02-12T06:10:54.819Z,15.30
2024-02-12T06:13:21.874Z,15.32
2024-02-12T06:15:48.414Z,16.33
2024-02-12T06:18:15.067Z,16.55
2024-02-12T06:20:41.836Z,17.45
2024-02-12T06:23:08.437Z,15.52
2024-02-12T06:25:34.972Z,17.98
2024-02-12T06:28:04.859Z,18.50
2024-02-12T06:30:31.780Z,17.83
2024-02-12T06:32:59.077Z,19.00
2024-02-12T06:35:26.480Z,19.02
2024-02-12T06:37:53.025Z,17.92
2024-02-12T06:40:22.139Z,19.77
2024-02-12T06:42:49.736Z,20.13
2024-02-12T06:45:18.090Z,17.70
2024-02-12T06:47:45.300Z,21.15
2024-02-12T06:50:13.788Z,20.90
2024-02-12T06:52:43.546Z,20.20
2024-02-12T06:55:11.338Z,20.20
2024-02-12T06:57:38.596Z,20.17
2024-02-12T07:00:08.441Z,21.83
2024-02-12T07:02:38.032Z,20.83
2024-02-12T07:05:06.903Z,22.95
2024-02-12T07:07:33.423Z,20.23
2024-02-12T07:10:01.075Z,20.33
2024-02-12T07:12:27.927Z,22.05
2024-02-12T07:14:54.876Z,22.45
2024-02-12T07:17:21.410Z,21.35
2024-02-12T07:19:48.500Z,20.70
2024-02-12T07:22:15.080Z,20.67
2024-02-12T07:24:41.817Z,21.00
2024-02-12T07:27:08.329Z,20.95
2024-02-12T07:29:37.155Z,21.05
2024-02-12T07:32:06.436Z,20.27
2024-02-12T07:34:33.445Z,21.13
2024-02-12T07:37:00.008Z,20.50
2024-02-12T07:39:26.760Z,18.10
2024-02-12T07:41:53.364Z,20.38
2024-02-12T07:44:19.978Z,20.65
2024-02-12T07:46:48.065Z,19.80
2024-02-12T07:49:14.667Z,19.20
2024-02-12T07:51:41.849Z,18.65
2024-02-12T07:54:08.536Z,16.73
2024-02-12T07:56:35.314Z,18.02
2024-02-12T07:59:01.867Z,15.77
2024-02-12T08:01:28.425Z,16.80
2024-02-12T08:03:56.581Z,17.02
2024-02-12T08:06:25.332Z,16.63
2024-02-12T08:08:51.978Z,18.00
2024-02-12T08:11:21.473Z,16.20
2024-02-12T08:13:51.424Z,14.30
2024-02-12T08:16:17.966Z,15.07
2024-02-12T08:18:44.650Z,15.00
2024-02-12T08:21:11.625Z,15.05
2024-02-12T08:23:38.358Z,15.07
2024-02-12T08:26:06.279Z,14.77
2024-02-12T08:28:32.987Z,14.20
2024-02-12T08:31:02.349Z,14.63
2024-02-12T08:33:29.509Z,13.50
2024-02-12T08:35:56.347Z,11.52
2024-02-12T08:38:22.871Z,14.82
2024-02-12T08:40:51.375Z,13.38
2024-02-12T08:43:19.481Z,13.18
2024-02-12T08:45:47.688Z,13.15
2024-02-12T08:48:14.334Z,12.52
2024-02-12T08:50:41.008Z,12.15
2024-02-12T08:53:07.676Z,11.30
2024-02-12T08:55:34.127Z,12.88
2024-02-12T08:58:00.734Z,12.55
2024-02-12T09:00:28.983Z,13.10
2024-02-12T09:02:56.893Z,11.43
2024-02-12T09:05:23.820Z,11.85
2024-02-12T09:07:51.290Z,9.98
2024-02-12T09:10:19.944Z,9.13
2024-02-12T09:12:53.051Z,10.95
2024-02-12T09:15:21.603Z,10.02
2024-02-12T09:17:48.986Z,11.85
2024-02-12T09:20:16.246Z,11.02
2024-02-12T09:22:43.056Z,11.05
2024-02-12T09:25:15.052Z,10.90
2024-02-12T09:27:47.064Z,10.63
2024-02-12T09:30:14.340Z,10.20
2024-02-12T09:32:45.019Z,12.15
2024-02-12T09:35:13.095Z,9.63
2024-02-12T09:37:40.641Z,10.40
2024-02-12T09:40:09.589Z,11.68
2024-02-12T09:42:36.714Z,11.98
2024-02-12T09:45:08.444Z,10.73
2024-02-12T09:47:37.242Z,10.55
2024-02-12T09:50:06.113Z,10.32
2024-02-12T09:52:33.041Z,11.40
2024-02-12T09:54:59.707Z,12.27
2024-02-12T09:57:27.339Z,10.82
2024-02-12T09:59:57.497Z,7.80
2024-02-12T10:02:25.826Z,11.38
2024-02-12T10:04:52.682Z,8.93
2024-02-12T10:07:20.050Z,11.93
2024-02-12T10:09:47.641Z,11.13
2024-02-12T10:12:14.251Z,9.73
2024-02-12T10:14:43.289Z,10.70
2024-02-12T10:17:10.105Z,12.00
2024-02-12T10:19:39.872Z,11.07
2024-02-12T10:22:06.568Z,10.68
2024-02-12T10:24:33.187Z,12.70
2024-02-12T10:27:00.116Z,11.20
2024-02-12T10:29:26.580Z,10.43
2024-02-12T10:31:55.571Z,10.88
2024-02-12T10:34:24.532Z,11.93
2024-02-12T10:36:54.709Z,10.55
2024-02-12T10:39:22.707Z,10.75
2024-02-12T10:41:51.711Z,10.88
2024-02-12T10:44:28.195Z,11.70
2024-02-12T10:46:55.138Z,9.43
2024-02-12T10:49:23.813Z,10.68
2024-02-12T10:51:56.029Z,11.00
2024-02-12T10:54:25.678Z,11.07
2024-02-12T10:56:53.088Z,9.57
2024-02-12T10:59:19.824Z,10.15
2024-02-12T11:01:50.218Z,10.75
2024-02-12T11:04:19.647Z,10.30
2024-02-12T11:06:48.672Z,9.65
2024-02-12T11:09:16.007Z,10.90
2024-02-12T11:11:49.785Z,10.57
2024-02-12T11:14:19.713Z,10.73
2024-02-12T11:16:50.725Z,8.70
2024-02-12T11:19:21.664Z,10.13
2024-02-12T11:21:55.278Z,10.88
2024-02-12T11:24:22.472Z,10.95
2024-02-12T11:26:53.207Z,10.70
2024-02-12T11:29:21.034Z,11.98
2024-02-12T11:31:49.559Z,10.40
2024-02-12T11:34:19.525Z,11.45
2024-02-12T11:37:00.172Z,11.05
2024-02-12T11:39:26.881Z,11.80
2024-02-12T11:41:53.428Z,10.65
2024-02-12T11:44:20.092Z,10.68
2024-02-12T11:47:01.921Z,11.82
2024-02-12T11:49:28.711Z,12.38
2024-02-12T11:51:56.851Z,12.10
2024-02-12T11:54:23.697Z,13.88
2024-02-12T11:56:52.412Z,11.40
2024-02-12T11:59:23.427Z,10.55
2024-02-12T12:01:50.239Z,13.18
2024-02-12T12:04:17.718Z,12.88
2024-02-12T12:06:44.788Z,13.15
2024-02-12T12:09:12.358Z,12.80
2024-02-12T12:11:40.932Z,12.95
2024-02-12T12:14:07.897Z,11.98
2024-02-12T12:16:36.496Z,13.23
2024-02-12T12:19:06.086Z,14.02
2024-02-12T12:21:33.853Z,14.25
2024-02-12T12:24:02.190Z,14.48
2024-02-12T12:26:29.378Z,11.48
2024-02-12T12:28:56.392Z,14.70
2024-02-12T12:31:23.451Z,14.02
2024-02-12T12:33:50.509Z,14.45
2024-02-12T12:36:19.186Z,13.77
2024-02-12T12:38:46.116Z,14.60
2024-02-12T12:41:13.350Z,14.30
2024-02-12T12:43:40.093Z,10.27
2024-02-12T12:46:07.366Z,14.02
2024-02-12T12:48:34.614Z,15.13
2024-02-12T12:51:01.767Z,15.52
2024-02-12T12:53:31.854Z,13.77
2024-02-12T12:55:59.322Z,12.15
2024-02-12T12:58:26.290Z,11.90
2024-02-12T13:00:54.070Z,14.88
2024-02-12T13:03:22.480Z,15.18
2024-02-12T13:05:50.371Z,13.60
2024-02-12T13:08:21.652Z,14.35
2024-02-12T13:10:49.865Z,13.80
2024-02-12T13:13:18.503Z,13.93
2024-02-12T13:15:46.149Z,14.15
2024-02-12T13:18:14.715Z,13.98
2024-02-12T13:20:43.581Z,13.13
2024-02-12T13:23:10.483Z,10.45
2024-02-12T13:25:37.472Z,9.00
2024-02-12T13:28:04.882Z,11.38
2024-02-12T13:30:32.398Z,11.90
2024-02-12T13:33:06.497Z,10.60
2024-02-12T13:35:33.682Z,11.48
2024-02-12T13:38:00.683Z,11.18
2024-02-12T13:40:31.559Z,11.35
2024-02-12T13:42:58.925Z,10.73
2024-02-12T13:45:26.162Z,10.70
2024-02-12T13:47:53.902Z,10.95
2024-02-12T13:50:20.583Z,10.45
2024-02-12T13:52:49.513Z,9.98
2024-02-12T13:55:17.112Z,9.85
2024-02-12T13:57:45.193Z,8.57
2024-02-12T14:00:43.831Z,10.82
2024-02-12T14:03:10.106Z,9.90
2024-02-12T14:05:37.319Z,10.50
2024-02-12T14:08:05.594Z,10.65
2024-02-12T14:10:32.442Z,10.07
2024-02-12T14:12:59.756Z,10.77
2024-02-12T14:16:02.424Z,11.15
2024-02-12T14:18:14.130Z,10.50
2024-02-12T14:20:40.755Z,10.35
2024-02-12T14:23:10.433Z,10.40
2024-02-12T14:25:37.212Z,10.75
2024-02-12T14:28:06.321Z,11.60
2024-02-12T14:30:35.074Z,11.23
2024-02-12T14:33:02.413Z,10.00
2024-02-12T14:35:34.935Z,10.45
2024-02-12T14:40:29.970Z,9.18
2024-02-12T14:42:56.882Z,11.20
2024-02-12T14:45:31.044Z,9.95
2024-02-12T14:48:06.500Z,10.27
2024-02-12T14:50:34.624Z,9.80
2024-02-12T14:53:01.759Z,7.57
2024-02-12T14:55:28.446Z,7.40
2024-02-12T14:57:55.223Z,8.68
2024-02-12T15:00:25.479Z,10.25
2024-02-12T15:02:53.674Z,9.57
2024-02-12T15:05:20.513Z,10.02
2024-02-12T15:07:49.801Z,9.75
2024-02-12T15:10:22.432Z,9.85
2024-02-12T15:12:50.278Z,8.98
2024-02-12T15:15:19.875Z,8.07
2024-02-12T15:17:48.041Z,8.70
2024-02-12T15:20:15.224Z,8.55
2024-02-12T15:22:41.761Z,7.50
2024-02-12T15:25:10.554Z,4.88
2024-02-12T15:27:39.109Z,4.28
2024-02-12T15:30:09.310Z,3.63
2024-02-12T15:32:36.660Z,2.65
2024-02-12T15:35:06.778Z,2.40
2024-02-12T15:37:33.699Z,2.30
2024-02-12T15:40:01.249Z,2.17
2024-02-12T15:42:28.300Z,2.28
2024-02-12T15:44:55.360Z,2.17
2024-02-12T15:47:22.574Z,2.80
2024-02-12T15:49:49.133Z,2.58
2024-02-12T15:52:15.699Z,3.00
2024-02-12T15:54:44.320Z,3.30
2024-02-12T15:57:15.915Z,3.20
2024-02-12T15:59:47.937Z,3.10
2024-02-12T16:02:15.671Z,3.47
2024-02-12T16:04:43.773Z,3.83
2024-02-12T16:07:10.456Z,4.03
2024-02-12T16:09:38.254Z,4.00
2024-02-12T16:12:12.260Z,4.40
2024-02-12T16:14:52.265Z,4.47
2024-02-12T16:17:19.120Z,5.32
2024-02-12T16:19:46.731Z,4.78
2024-02-12T16:22:15.892Z,5.18
2024-02-12T16:24:42.697Z,5.32
2024-02-12T16:27:09.290Z,5.63
2024-02-12T16:29:35.836Z,5.57
2024-02-12T16:32:04.595Z,5.65
2024-02-12T16:34:31.707Z,6.10
2024-02-12T16:36:58.443Z,5.63
2024-02-12T16:39:25.087Z,6.20
2024-02-12T16:41:51.573Z,5.93
2024-02-12T16:44:18.112Z,5.70
2024-02-12T16:46:45.593Z,6.43
2024-02-12T16:49:14.017Z,6.50
2024-02-12T16:51:40.848Z,6.18
2024-02-12T16:54:12.310Z,7.07
2024-02-12T16:56:41.873Z,7.22
2024-02-12T16:59:08.463Z,6.75
2024-02-12T17:01:34.950Z,6.90
2024-02-12T17:04:01.439Z,6.70
2024-02-12T17:06:29.405Z,6.60
2024-02-12T17:08:56.300Z,7.25
2024-02-12T17:11:22.828Z,6.25
2024-02-12T17:13:49.424Z,6.38
2024-02-12T17:16:29.691Z,6.20
2024-02-12T17:19:02.326Z,6.53
2024-02-12T17:21:29.145Z,6.72
2024-02-12T17:23:55.719Z,7.47
2024-02-12T17:26:23.597Z,7.18
2024-02-12T17:28:50.179Z,6.82
2024-02-12T17:31:17.319Z,7.53
2024-02-12T17:33:44.323Z,7.18
2024-02-12T17:38:59.238Z,7.97
2024-02-12T17:41:26.223Z,7.70
2024-02-12T17:43:53.937Z,8.05
2024-02-12T17:46:20.732Z,8.02
2024-02-12T17:48:51.604Z,7.97
2024-02-12T17:51:18.186Z,9.00
2024-02-12T17:53:44.838Z,8.93
2024-02-12T17:56:11.368Z,8.02
2024-02-12T17:58:38.161Z,7.55
2024-02-12T18:01:08.877Z,7.80
2024-02-12T18:03:35.457Z,8.10
2024-02-12T18:06:04.898Z,7.13
2024-02-12T18:08:31.671Z,7.45
2024-02-12T18:10:58.116Z,8.15
2024-02-12T18:13:24.632Z,7.18
2024-02-12T18:15:52.900Z,7.45
2024-02-12T18:18:22.540Z,6.95
2024-02-12T18:20:49.186Z,6.93
2024-02-12T18:23:17.606Z,6.97
2024-02-12T18:25:46.424Z,7.45
2024-02-12T18:28:16.099Z,6.78
2024-02-12T18:30:42.656Z,6.53
2024-02-12T18:33:11.323Z,7.05
2024-02-12T18:35:38.070Z,6.60
2024-02-12T18:38:10.143Z,6.65
2024-02-12T18:40:39.581Z,6.40
2024-02-12T18:43:06.124Z,5.47
2024-02-12T18:45:32.865Z,5.53
2024-02-12T18:48:01.944Z,5.10
2024-02-12T18:50:31.405Z,5.25
2024-02-12T18:52:59.079Z,4.63
2024-02-12T18:55:26.853Z,5.22
2024-02-12T18:57:53.480Z,5.00
2024-02-12T19:00:20.677Z,4.15
2024-02-12T19:02:47.236Z,4.72
2024-02-12T19:05:14.293Z,5.20
2024-02-12T19:07:41.167Z,5.10
2024-02-12T19:10:12.598Z,4.72
2024-02-12T19:12:43.238Z,4.90
2024-02-12T19:15:13.680Z,4.57
2024-02-12T19:17:40.575Z,5.25
2024-02-12T19:20:07.404Z,5.90
2024-02-12T19:22:39.116Z,5.75
2024-02-12T19:25:09.599Z,5.50
2024-02-12T19:27:39.361Z,5.50
2024-02-12T19:30:09.690Z,5.72
2024-02-12T19:32:40.087Z,5.50
2024-02-12T19:35:11.243Z,5.38
2024-02-12T19:37:40.713Z,5.53
2024-02-12T19:40:15.144Z,6.28
2024-02-12T19:42:50.009Z,6.07
2024-02-12T19:45:17.278Z,6.38
2024-02-12T19:47:43.922Z,6.32
2024-02-12T19:50:15.208Z,6.95
2024-02-12T19:52:42.346Z,6.30
2024-02-12T19:55:09.613Z,6.60
2024-02-12T19:57:36.156Z,6.97
2024-02-12T20:00:07.761Z,6.72
2024-02-12T20:02:34.322Z,8.00
2024-02-12T20:05:04.034Z,7.13
2024-02-12T20:07:34.339Z,6.82
2024-02-12T20:10:01.525Z,7.65
2024-02-12T20:12:28.298Z,7.63
2024-02-12T20:14:57.753Z,7.63
2024-02-12T20:17:25.046Z,8.10
2024-02-12T20:19:53.252Z,7.65
2024-02-12T20:22:21.581Z,7.25
2024-02-12T20:24:48.110Z,7.97
2024-02-12T20:27:14.806Z,8.55
2024-02-12T20:29:44.771Z,9.23
2024-02-12T20:32:23.398Z,8.43
2024-02-12T20:35:06.481Z,7.88
2024-02-12T20:37:33.032Z,8.43
2024-02-12T20:40:02.677Z,8.80
2024-02-12T20:42:34.292Z,8.63
2024-02-12T20:45:00.881Z,8.90
2024-02-12T20:47:28.284Z,8.75
2024-02-12T20:49:55.436Z,9.65
2024-02-12T20:52:22.465Z,9.07
2024-02-12T20:54:50.843Z,10.00
2024-02-12T20:57:18.288Z,10.18
2024-02-12T20:59:45.588Z,9.43
2024-02-12T21:02:13.017Z,8.88
2024-02-12T21:04:40.591Z,8.88
2024-02-12T21:07:07.469Z,9.13
2024-02-12T21:09:35.850Z,8.07
2024-02-12T21:12:09.127Z,8.73
2024-02-12T21:14:39.020Z,7.82
2024-02-12T21:17:07.071Z,8.40
2024-02-12T21:19:35.776Z,6.93
2024-02-12T21:22:02.658Z,6.93
2024-02-12T21:24:29.228Z,7.57
2024-02-12T21:26:55.808Z,7.20
2024-02-12T21:29:22.751Z,6.15
2024-02-12T21:31:49.453Z,5.78
2024-02-12T21:34:17.692Z,5.50
2024-02-12T21:36:45.638Z,5.22
2024-02-12T21:39:20.014Z,5.20
2024-02-12T21:41:52.865Z,5.22
2024-02-12T21:44:23.148Z,4.55
2024-02-12T21:46:50.268Z,4.13
2024-02-12T21:49:17.129Z,4.25
2024-02-12T21:51:43.845Z,3.83
2024-02-12T21:54:10.340Z,4.35
2024-02-12T21:56:39.863Z,4.32
2024-02-12T21:59:06.696Z,4.07
2024-02-12T22:01:34.132Z,3.70
2024-02-12T22:04:00.849Z,3.30
2024-02-12T22:06:27.549Z,3.55
2024-02-12T22:08:54.487Z,3.42
2024-02-12T22:11:21.114Z,3.90
2024-02-12T22:13:49.079Z,3.00
2024-02-12T22:16:18.475Z,3.78
2024-02-12T22:18:45.358Z,3.33
2024-02-12T22:21:12.275Z,3.10
2024-02-12T22:23:41.473Z,3.38
2024-02-12T22:26:09.535Z,3.70
2024-02-12T22:28:38.535Z,3.22
2024-02-12T22:31:09.515Z,2.80
2024-02-12T22:33:36.171Z,2.90
2024-02-12T22:36:02.997Z,3.05
2024-02-12T22:38:29.702Z,2.72
2024-02-12T22:40:57.749Z,2.88
2024-02-12T22:43:27.283Z,2.92
2024-02-12T22:45:54.175Z,2.42
2024-02-12T22:48:20.758Z,4.40
2024-02-12T22:50:47.399Z,3.72
2024-02-12T22:53:14.179Z,3.25
2024-02-12T22:55:40.851Z,3.22
2024-02-12T22:58:16.437Z,3.20
2024-02-12T23:00:45.182Z,3.45
2024-02-12T23:03:15.028Z,3.33
2024-02-12T23:05:43.264Z,3.42
2024-02-12T23:08:11.934Z,2.92
2024-02-12T23:10:39.053Z,3.60
2024-02-12T23:13:07.776Z,3.90
2024-02-12T23:15:36.528Z,3.60
2024-02-12T23:18:04.176Z,3.38
2024-02-12T23:20:31.652Z,3.38
2024-02-12T23:22:58.432Z,3.75
2024-02-12T23:25:27.801Z,3.55
2024-02-12T23:27:55.668Z,3.85
2024-02-12T23:30:22.887Z,3.20
2024-02-12T23:32:50.457Z,3.83
2024-02-12T23:35:18.161Z,3.88
2024-02-12T23:37:45.997Z,3.60
2024-02-12T23:40:12.641Z,3.88
2024-02-12T23:42:42.863Z,3.60
2024-02-12T23:45:10.565Z,3.28
2024-02-12T23:47:38.746Z,3.40
2024-02-12T23:50:13.156Z,3.35
2024-02-12T23:52:40.944Z,3.47
2024-02-12T23:55:08.478Z,3.83
2024-02-12T23:57:38.180Z,3.55
